LICJ/PMO METAR and TAF weather

Enter ICAO airport designator
Station Type Date Time Source
LICJ METAR 2019/04/19 08:20 UTC NOAA

LICJ 190820Z 27005KT CAVOK 15/11 Q1024


Station Type Date Time Source
LICJ Decoded METAR 2019/04/19 08:20 UTC NOAA

Palermo / Punta Raisi, Italy (LICJ) 38-11N 013-06E 21M
Apr 19, 2019 - 04:20 AM EDT / 2019.04.19 0820 UTC
Wind: from the W (270 degrees) at 6 MPH (5 KT):0
Visibility: greater than 7 mile(s):0
Temperature: 59 F (15 C)
Dew Point: 51 F (11 C)
Relative Humidity: 76%
Pressure (altimeter): 30.24 in. Hg (1024 hPa)
ob: LICJ 190820Z 27005KT CAVOK 15/11 Q1024
cycle: 8

Station Type Date Time Source
LICJ TAF 2019/04/19 06:21 UTC NOAA

TAF LICJ 190500Z 1906/2006 VRB05KT 9999 FEW020
BECMG 1908/1910 05014KT
BECMG 1918/1920 VRB05KT

Example: see airport list